sensor_id;sensor_type;location;lat;lon;timestamp;temperature;humidity
30865;DHT22;17574;49.418;11.038;2022-10-16T00:02:08;15.90;90.20
30865;DHT22;17574;49.418;11.038;2022-10-16T00:04:35;15.90;90.20
30865;DHT22;17574;49.418;11.038;2022-10-16T00:07:01;16.00;90.30
30865;DHT22;17574;49.418;11.038;2022-10-16T00:09:28;16.00;90.30
30865;DHT22;17574;49.418;11.038;2022-10-16T00:11:55;16.00;90.20
30865;DHT22;17574;49.418;11.038;2022-10-16T00:14:21;16.00;90.00
30865;DHT22;17574;49.418;11.038;2022-10-16T00:16:48;15.90;90.30
30865;DHT22;17574;49.418;11.038;2022-10-16T00:19:14;15.90;90.30
30865;DHT22;17574;49.418;11.038;2022-10-16T00:21:41;15.90;90.30
30865;DHT22;17574;49.418;11.038;2022-10-16T00:24:08;15.90;90.60
30865;DHT22;17574;49.418;11.038;2022-10-16T00:26:36;15.90;90.30
30865;DHT22;17574;49.418;11.038;2022-10-16T00:29:03;15.90;90.40
30865;DHT22;17574;49.418;11.038;2022-10-16T00:31:30;15.90;90.90
30865;DHT22;17574;49.418;11.038;2022-10-16T00:33:57;15.90;90.70
30865;DHT22;17574;49.418;11.038;2022-10-16T00:36:24;15.90;90.50
30865;DHT22;17574;49.418;11.038;2022-10-16T00:38:52;15.90;90.80
30865;DHT22;17574;49.418;11.038;2022-10-16T00:41:20;15.90;91.00
30865;DHT22;17574;49.418;11.038;2022-10-16T00:43:49;15.80;91.00
30865;DHT22;17574;49.418;11.038;2022-10-16T00:46:17;15.80;91.40
30865;DHT22;17574;49.418;11.038;2022-10-16T00:48:49;15.80;91.60
30865;DHT22;17574;49.418;11.038;2022-10-16T00:51:21;15.80;91.50
30865;DHT22;17574;49.418;11.038;2022-10-16T00:53:49;15.80;91.70
30865;DHT22;17574;49.418;11.038;2022-10-16T00:56:16;15.80;91.60
30865;DHT22;17574;49.418;11.038;2022-10-16T00:58:42;15.90;91.70
30865;DHT22;17574;49.418;11.038;2022-10-16T01:01:09;15.80;91.60
30865;DHT22;17574;49.418;11.038;2022-10-16T01:03:36;15.80;91.80
30865;DHT22;17574;49.418;11.038;2022-10-16T01:08:34;15.80;92.80
30865;DHT22;17574;49.418;11.038;2022-10-16T01:11:06;15.70;93.20
30865;DHT22;17574;49.418;11.038;2022-10-16T01:13:41;15.70;93.30
30865;DHT22;17574;49.418;11.038;2022-10-16T01:18:54;15.70;93.30
30865;DHT22;17574;49.418;11.038;2022-10-16T01:21:22;15.70;93.80
30865;DHT22;17574;49.418;11.038;2022-10-16T01:24:03;15.70;93.70
30865;DHT22;17574;49.418;11.038;2022-10-16T01:26:37;15.70;93.80
30865;DHT22;17574;49.418;11.038;2022-10-16T01:29:09;15.70;93.80
30865;DHT22;17574;49.418;11.038;2022-10-16T01:31:42;15.70;93.80
30865;DHT22;17574;49.418;11.038;2022-10-16T01:34:18;15.70;93.80
30865;DHT22;17574;49.418;11.038;2022-10-16T01:36:47;15.80;93.80
30865;DHT22;17574;49.418;11.038;2022-10-16T01:39:16;15.80;93.80
30865;DHT22;17574;49.418;11.038;2022-10-16T01:41:48;15.70;93.60
30865;DHT22;17574;49.418;11.038;2022-10-16T01:44:19;15.70;93.80
30865;DHT22;17574;49.418;11.038;2022-10-16T01:46:47;15.60;93.70
30865;DHT22;17574;49.418;11.038;2022-10-16T01:49:14;15.60;93.70
30865;DHT22;17574;49.418;11.038;2022-10-16T01:51:42;15.60;94.00
30865;DHT22;17574;49.418;11.038;2022-10-16T01:54:11;15.60;94.20
30865;DHT22;17574;49.418;11.038;2022-10-16T01:56:39;15.60;94.40
30865;DHT22;17574;49.418;11.038;2022-10-16T01:59:06;15.70;93.80
30865;DHT22;17574;49.418;11.038;2022-10-16T02:01:36;15.60;93.70
30865;DHT22;17574;49.418;11.038;2022-10-16T02:04:07;15.60;93.70
30865;DHT22;17574;49.418;11.038;2022-10-16T02:06:35;15.60;94.00
30865;DHT22;17574;49.418;11.038;2022-10-16T02:09:02;15.70;93.80
30865;DHT22;17574;49.418;11.038;2022-10-16T02:11:29;15.70;93.80
30865;DHT22;17574;49.418;11.038;2022-10-16T02:13:58;15.70;93.80
30865;DHT22;17574;49.418;11.038;2022-10-16T02:16:37;15.70;93.80
30865;DHT22;17574;49.418;11.038;2022-10-16T02:19:04;15.70;93.80
30865;DHT22;17574;49.418;11.038;2022-10-16T02:24:21;15.70;93.80
30865;DHT22;17574;49.418;11.038;2022-10-16T02:29:26;15.70;92.90
30865;DHT22;17574;49.418;11.038;2022-10-16T02:31:57;15.70;92.90
30865;DHT22;17574;49.418;11.038;2022-10-16T02:34:24;15.80;92.50
30865;DHT22;17574;49.418;11.038;2022-10-16T02:36:51;15.80;92.40
30865;DHT22;17574;49.418;11.038;2022-10-16T02:39:18;15.80;92.60
30865;DHT22;17574;49.418;11.038;2022-10-16T02:41:46;15.70;92.70
30865;DHT22;17574;49.418;11.038;2022-10-16T02:44:13;15.70;92.70
30865;DHT22;17574;49.418;11.038;2022-10-16T02:46:40;15.70;92.70
30865;DHT22;17574;49.418;11.038;2022-10-16T02:49:06;15.70;93.00
30865;DHT22;17574;49.418;11.038;2022-10-16T02:51:33;15.70;93.00
30865;DHT22;17574;49.418;11.038;2022-10-16T02:53:59;15.70;92.90
30865;DHT22;17574;49.418;11.038;2022-10-16T02:56:26;15.60;93.10
30865;DHT22;17574;49.418;11.038;2022-10-16T02:58:52;15.70;93.80
30865;DHT22;17574;49.418;11.038;2022-10-16T03:01:19;15.70;93.80
30865;DHT22;17574;49.418;11.038;2022-10-16T03:03:46;15.70;93.80
30865;DHT22;17574;49.418;11.038;2022-10-16T03:06:12;15.70;93.80
30865;DHT22;17574;49.418;11.038;2022-10-16T03:08:39;15.70;93.80
30865;DHT22;17574;49.418;11.038;2022-10-16T03:11:05;15.60;93.70
30865;DHT22;17574;49.418;11.038;2022-10-16T03:13:32;15.60;93.70
30865;DHT22;17574;49.418;11.038;2022-10-16T03:15:59;15.60;94.20
30865;DHT22;17574;49.418;11.038;2022-10-16T03:18:25;15.60;94.10
30865;DHT22;17574;49.418;11.038;2022-10-16T03:20:52;15.60;93.70
30865;DHT22;17574;49.418;11.038;2022-10-16T03:23:19;15.60;94.30
30865;DHT22;17574;49.418;11.038;2022-10-16T03:25:45;15.60;94.60
30865;DHT22;17574;49.418;11.038;2022-10-16T03:28:13;15.50;94.90
30865;DHT22;17574;49.418;11.038;2022-10-16T03:30:40;15.50;95.10
30865;DHT22;17574;49.418;11.038;2022-10-16T03:33:07;15.50;95.20
30865;DHT22;17574;49.418;11.038;2022-10-16T03:35:33;15.60;94.80
30865;DHT22;17574;49.418;11.038;2022-10-16T03:38:00;15.50;94.70
30865;DHT22;17574;49.418;11.038;2022-10-16T03:40:27;15.60;94.30
30865;DHT22;17574;49.418;11.038;2022-10-16T03:42:53;15.60;93.70
30865;DHT22;17574;49.418;11.038;2022-10-16T03:45:23;15.60;93.70
30865;DHT22;17574;49.418;11.038;2022-10-16T03:47:50;15.50;94.10
30865;DHT22;17574;49.418;11.038;2022-10-16T03:50:17;15.50;94.60
30865;DHT22;17574;49.418;11.038;2022-10-16T03:52:43;15.50;94.30
30865;DHT22;17574;49.418;11.038;2022-10-16T03:55:10;15.50;94.20
30865;DHT22;17574;49.418;11.038;2022-10-16T03:57:36;15.50;93.70
30865;DHT22;17574;49.418;11.038;2022-10-16T04:00:03;15.50;93.70
30865;DHT22;17574;49.418;11.038;2022-10-16T04:02:30;15.50;93.80
30865;DHT22;17574;49.418;11.038;2022-10-16T04:04:56;15.50;94.10
30865;DHT22;17574;49.418;11.038;2022-10-16T04:07:23;15.50;94.20
30865;DHT22;17574;49.418;11.038;2022-10-16T04:09:50;15.60;93.90
30865;DHT22;17574;49.418;11.038;2022-10-16T04:12:18;15.50;94.00
30865;DHT22;17574;49.418;11.038;2022-10-16T04:14:45;15.50;94.40
30865;DHT22;17574;49.418;11.038;2022-10-16T04:17:11;15.50;94.20
30865;DHT22;17574;49.418;11.038;2022-10-16T04:19:38;15.50;94.10
30865;DHT22;17574;49.418;11.038;2022-10-16T04:22:05;15.60;93.70
30865;DHT22;17574;49.418;11.038;2022-10-16T04:24:31;15.60;93.70
30865;DHT22;17574;49.418;11.038;2022-10-16T04:26:58;15.50;93.70
30865;DHT22;17574;49.418;11.038;2022-10-16T04:29:24;15.60;93.80
30865;DHT22;17574;49.418;11.038;2022-10-16T04:31:51;15.60;94.40
30865;DHT22;17574;49.418;11.038;2022-10-16T04:34:17;15.50;94.30
30865;DHT22;17574;49.418;11.038;2022-10-16T04:36:46;15.50;94.30
30865;DHT22;17574;49.418;11.038;2022-10-16T04:39:13;15.60;93.80
30865;DHT22;17574;49.418;11.038;2022-10-16T04:41:39;15.60;93.70
30865;DHT22;17574;49.418;11.038;2022-10-16T04:44:06;15.50;94.00
30865;DHT22;17574;49.418;11.038;2022-10-16T04:46:33;15.60;93.70
30865;DHT22;17574;49.418;11.038;2022-10-16T04:48:59;15.50;93.70
30865;DHT22;17574;49.418;11.038;2022-10-16T04:51:26;15.60;94.00
30865;DHT22;17574;49.418;11.038;2022-10-16T04:53:54;15.60;94.10
30865;DHT22;17574;49.418;11.038;2022-10-16T04:56:21;15.60;93.80
30865;DHT22;17574;49.418;11.038;2022-10-16T04:58:48;15.60;93.70
30865;DHT22;17574;49.418;11.038;2022-10-16T05:01:14;15.50;94.30
30865;DHT22;17574;49.418;11.038;2022-10-16T05:03:41;15.50;94.50
30865;DHT22;17574;49.418;11.038;2022-10-16T05:06:08;15.50;94.50
30865;DHT22;17574;49.418;11.038;2022-10-16T05:08:34;15.50;94.70
30865;DHT22;17574;49.418;11.038;2022-10-16T05:11:01;15.40;95.10
30865;DHT22;17574;49.418;11.038;2022-10-16T05:13:28;15.40;95.40
30865;DHT22;17574;49.418;11.038;2022-10-16T05:15:54;15.40;95.40
30865;DHT22;17574;49.418;11.038;2022-10-16T05:18:21;15.40;95.10
30865;DHT22;17574;49.418;11.038;2022-10-16T05:20:48;15.40;95.10
30865;DHT22;17574;49.418;11.038;2022-10-16T05:23:14;15.40;95.00
30865;DHT22;17574;49.418;11.038;2022-10-16T05:25:41;15.40;94.80
30865;DHT22;17574;49.418;11.038;2022-10-16T05:28:07;15.40;95.00
30865;DHT22;17574;49.418;11.038;2022-10-16T05:30:34;15.40;95.10
30865;DHT22;17574;49.418;11.038;2022-10-16T05:33:03;15.30;95.20
30865;DHT22;17574;49.418;11.038;2022-10-16T05:35:29;15.30;95.40
30865;DHT22;17574;49.418;11.038;2022-10-16T05:37:56;15.30;95.40
30865;DHT22;17574;49.418;11.038;2022-10-16T05:40:23;15.30;95.50
30865;DHT22;17574;49.418;11.038;2022-10-16T05:42:49;15.30;95.40
30865;DHT22;17574;49.418;11.038;2022-10-16T05:45:16;15.30;95.40
30865;DHT22;17574;49.418;11.038;2022-10-16T05:47:44;15.30;95.60
30865;DHT22;17574;49.418;11.038;2022-10-16T05:50:11;15.30;95.70
30865;DHT22;17574;49.418;11.038;2022-10-16T05:52:38;15.30;95.90
30865;DHT22;17574;49.418;11.038;2022-10-16T05:55:04;15.30;95.80
30865;DHT22;17574;49.418;11.038;2022-10-16T05:57:31;15.30;95.80
30865;DHT22;17574;49.418;11.038;2022-10-16T05:59:58;15.30;95.70
30865;DHT22;17574;49.418;11.038;2022-10-16T06:02:24;15.40;95.70
30865;DHT22;17574;49.418;11.038;2022-10-16T06:04:51;15.40;95.70
30865;DHT22;17574;49.418;11.038;2022-10-16T06:07:20;15.40;95.90
30865;DHT22;17574;49.418;11.038;2022-10-16T06:09:53;15.50;95.40
30865;DHT22;17574;49.418;11.038;2022-10-16T06:12:19;15.50;94.80
30865;DHT22;17574;49.418;11.038;2022-10-16T06:14:46;15.60;94.60
30865;DHT22;17574;49.418;11.038;2022-10-16T06:17:15;15.70;93.80
30865;DHT22;17574;49.418;11.038;2022-10-16T06:19:42;15.70;93.80
30865;DHT22;17574;49.418;11.038;2022-10-16T06:22:09;15.80;92.70
30865;DHT22;17574;49.418;11.038;2022-10-16T06:24:35;15.90;91.80
30865;DHT22;17574;49.418;11.038;2022-10-16T06:27:03;16.00;91.10
30865;DHT22;17574;49.418;11.038;2022-10-16T06:29:29;16.10;90.80
30865;DHT22;17574;49.418;11.038;2022-10-16T06:31:56;16.20;90.40
30865;DHT22;17574;49.418;11.038;2022-10-16T06:34:22;16.30;88.50
30865;DHT22;17574;49.418;11.038;2022-10-16T06:36:49;16.40;85.90
30865;DHT22;17574;49.418;11.038;2022-10-16T06:39:16;16.40;85.30
30865;DHT22;17574;49.418;11.038;2022-10-16T06:41:42;16.50;85.20
30865;DHT22;17574;49.418;11.038;2022-10-16T06:44:09;16.50;86.10
30865;DHT22;17574;49.418;11.038;2022-10-16T06:46:36;16.80;85.30
30865;DHT22;17574;49.418;11.038;2022-10-16T06:49:03;17.10;80.20
30865;DHT22;17574;49.418;11.038;2022-10-16T06:51:29;17.30;75.20
30865;DHT22;17574;49.418;11.038;2022-10-16T06:53:58;17.40;72.00
30865;DHT22;17574;49.418;11.038;2022-10-16T06:56:30;17.30;72.00
30865;DHT22;17574;49.418;11.038;2022-10-16T06:58:57;17.20;73.00
30865;DHT22;17574;49.418;11.038;2022-10-16T07:01:24;17.10;73.50
30865;DHT22;17574;49.418;11.038;2022-10-16T07:03:51;17.10;74.40
30865;DHT22;17574;49.418;11.038;2022-10-16T07:06:20;17.00;75.30
30865;DHT22;17574;49.418;11.038;2022-10-16T07:08:47;17.00;75.80
30865;DHT22;17574;49.418;11.038;2022-10-16T07:11:15;17.00;75.00
30865;DHT22;17574;49.418;11.038;2022-10-16T07:13:44;17.00;76.00
30865;DHT22;17574;49.418;11.038;2022-10-16T07:16:19;16.90;77.30
30865;DHT22;17574;49.418;11.038;2022-10-16T07:18:45;17.00;77.00
30865;DHT22;17574;49.418;11.038;2022-10-16T07:21:16;16.90;76.00
30865;DHT22;17574;49.418;11.038;2022-10-16T07:23:42;16.90;75.80
30865;DHT22;17574;49.418;11.038;2022-10-16T07:26:09;16.90;74.90
30865;DHT22;17574;49.418;11.038;2022-10-16T07:28:37;16.90;75.50
30865;DHT22;17574;49.418;11.038;2022-10-16T07:31:08;16.90;75.40
30865;DHT22;17574;49.418;11.038;2022-10-16T07:33:37;16.90;76.30
30865;DHT22;17574;49.418;11.038;2022-10-16T07:36:05;16.80;77.40
30865;DHT22;17574;49.418;11.038;2022-10-16T07:38:31;16.90;76.90
30865;DHT22;17574;49.418;11.038;2022-10-16T07:40:58;16.80;77.30
30865;DHT22;17574;49.418;11.038;2022-10-16T07:43:25;16.90;75.80
30865;DHT22;17574;49.418;11.038;2022-10-16T07:45:52;16.80;76.90
30865;DHT22;17574;49.418;11.038;2022-10-16T07:48:19;16.90;77.10
30865;DHT22;17574;49.418;11.038;2022-10-16T07:50:46;16.90;75.20
30865;DHT22;17574;49.418;11.038;2022-10-16T07:53:13;16.90;75.70
30865;DHT22;17574;49.418;11.038;2022-10-16T07:55:39;16.90;74.90
30865;DHT22;17574;49.418;11.038;2022-10-16T07:58:06;17.00;75.00
30865;DHT22;17574;49.418;11.038;2022-10-16T08:00:33;17.00;75.00
30865;DHT22;17574;49.418;11.038;2022-10-16T08:02:59;17.00;75.00
30865;DHT22;17574;49.418;11.038;2022-10-16T08:05:27;17.00;75.10
30865;DHT22;17574;49.418;11.038;2022-10-16T08:07:54;17.80;80.50
30865;DHT22;17574;49.418;11.038;2022-10-16T08:10:22;17.70;71.90
30865;DHT22;17574;49.418;11.038;2022-10-16T08:12:49;17.70;67.10
30865;DHT22;17574;49.418;11.038;2022-10-16T08:15:15;17.70;66.80
30865;DHT22;17574;49.418;11.038;2022-10-16T08:17:42;17.70;67.90
30865;DHT22;17574;49.418;11.038;2022-10-16T08:20:09;17.70;68.30
30865;DHT22;17574;49.418;11.038;2022-10-16T08:22:35;17.70;68.30
30865;DHT22;17574;49.418;11.038;2022-10-16T08:25:02;17.70;66.80
30865;DHT22;17574;49.418;11.038;2022-10-16T08:27:32;17.80;66.90
30865;DHT22;17574;49.418;11.038;2022-10-16T08:29:59;17.90;66.90
30865;DHT22;17574;49.418;11.038;2022-10-16T08:32:25;18.10;66.50
30865;DHT22;17574;49.418;11.038;2022-10-16T08:34:53;18.30;60.70
30865;DHT22;17574;49.418;11.038;2022-10-16T08:37:19;18.50;58.10
30865;DHT22;17574;49.418;11.038;2022-10-16T08:39:46;18.70;56.70
30865;DHT22;17574;49.418;11.038;2022-10-16T08:42:15;18.90;52.20
30865;DHT22;17574;49.418;11.038;2022-10-16T08:44:53;19.20;50.00
30865;DHT22;17574;49.418;11.038;2022-10-16T08:47:26;19.30;46.50
30865;DHT22;17574;49.418;11.038;2022-10-16T08:50:00;19.30;45.10
30865;DHT22;17574;49.418;11.038;2022-10-16T08:52:29;19.40;39.60
30865;DHT22;17574;49.418;11.038;2022-10-16T08:54:57;19.60;39.10
30865;DHT22;17574;49.418;11.038;2022-10-16T08:57:24;19.80;37.10
30865;DHT22;17574;49.418;11.038;2022-10-16T08:59:52;19.80;31.50
30865;DHT22;17574;49.418;11.038;2022-10-16T09:07:31;19.80;31.50
30865;DHT22;17574;49.418;11.038;2022-10-16T09:15:21;20.00;26.90
30865;DHT22;17574;49.418;11.038;2022-10-16T09:22:50;20.40;28.80
30865;DHT22;17574;49.418;11.038;2022-10-16T09:25:20;20.70;27.40
30865;DHT22;17574;49.418;11.038;2022-10-16T09:27:48;20.80;25.20
30865;DHT22;17574;49.418;11.038;2022-10-16T09:30:16;20.80;22.80
30865;DHT22;17574;49.418;11.038;2022-10-16T09:32:44;20.60;25.60
30865;DHT22;17574;49.418;11.038;2022-10-16T09:35:18;20.60;25.10
30865;DHT22;17574;49.418;11.038;2022-10-16T09:37:47;20.40;27.20
30865;DHT22;17574;49.418;11.038;2022-10-16T09:40:25;20.20;28.40
30865;DHT22;17574;49.418;11.038;2022-10-16T09:42:54;20.10;27.90
30865;DHT22;17574;49.418;11.038;2022-10-16T09:45:23;19.90;31.60
30865;DHT22;17574;49.418;11.038;2022-10-16T09:47:50;19.70;32.70
30865;DHT22;17574;49.418;11.038;2022-10-16T09:50:24;19.60;34.90
30865;DHT22;17574;49.418;11.038;2022-10-16T09:53:12;19.50;35.50
30865;DHT22;17574;49.418;11.038;2022-10-16T09:55:52;19.30;36.80
30865;DHT22;17574;49.418;11.038;2022-10-16T09:58:22;19.20;38.80
30865;DHT22;17574;49.418;11.038;2022-10-16T10:00:50;19.20;41.10
30865;DHT22;17574;49.418;11.038;2022-10-16T10:03:24;19.20;41.70
30865;DHT22;17574;49.418;11.038;2022-10-16T10:05:56;19.30;41.30
30865;DHT22;17574;49.418;11.038;2022-10-16T10:08:27;19.50;37.30
30865;DHT22;17574;49.418;11.038;2022-10-16T10:10:54;19.60;37.10
30865;DHT22;17574;49.418;11.038;2022-10-16T10:13:22;19.80;36.30
30865;DHT22;17574;49.418;11.038;2022-10-16T10:15:51;20.00;31.70
30865;DHT22;17574;49.418;11.038;2022-10-16T10:18:19;20.20;31.90
30865;DHT22;17574;49.418;11.038;2022-10-16T10:21:00;20.70;27.40
30865;DHT22;17574;49.418;11.038;2022-10-16T10:23:28;21.00;24.70
30865;DHT22;17574;49.418;11.038;2022-10-16T10:25:59;21.40;20.00
30865;DHT22;17574;49.418;11.038;2022-10-16T10:31:39;21.40;18.60
30865;DHT22;17574;49.418;11.038;2022-10-16T10:34:22;21.20;21.40
30865;DHT22;17574;49.418;11.038;2022-10-16T10:37:16;21.30;21.30
30865;DHT22;17574;49.418;11.038;2022-10-16T10:39:50;21.40;21.10
30865;DHT22;17574;49.418;11.038;2022-10-16T10:44:55;22.10;20.10
30865;DHT22;17574;49.418;11.038;2022-10-16T10:47:36;22.50;13.10
30865;DHT22;17574;49.418;11.038;2022-10-16T10:52:52;22.90;10.00
30865;DHT22;17574;49.418;11.038;2022-10-16T11:00:44;23.50;6.90
30865;DHT22;17574;49.418;11.038;2022-10-16T11:05:42;23.20;6.30
30865;DHT22;17574;49.418;11.038;2022-10-16T11:08:13;22.90;7.40
30865;DHT22;17574;49.418;11.038;2022-10-16T11:10:44;22.70;9.80
30865;DHT22;17574;49.418;11.038;2022-10-16T11:15:48;22.60;10.40
30865;DHT22;17574;49.418;11.038;2022-10-16T11:18:24;22.50;14.50
30865;DHT22;17574;49.418;11.038;2022-10-16T11:21:00;22.50;12.70
30865;DHT22;17574;49.418;11.038;2022-10-16T11:26:05;22.60;12.50
30865;DHT22;17574;49.418;11.038;2022-10-16T11:28:37;22.80;13.20
30865;DHT22;17574;49.418;11.038;2022-10-16T11:36:35;23.00;12.40
30865;DHT22;17574;49.418;11.038;2022-10-16T11:46:26;23.80;5.60
30865;DHT22;17574;49.418;11.038;2022-10-16T11:51:39;25.30;1.00
30865;DHT22;17574;49.418;11.038;2022-10-16T11:56:52;26.80;1.00
30865;DHT22;17574;49.418;11.038;2022-10-16T11:59:32;26.80;1.00
30865;DHT22;17574;49.418;11.038;2022-10-16T12:04:41;27.10;1.00
30865;DHT22;17574;49.418;11.038;2022-10-16T12:07:12;27.40;1.00
30865;DHT22;17574;49.418;11.038;2022-10-16T12:09:40;28.50;1.00
30865;DHT22;17574;49.418;11.038;2022-10-16T12:12:26;28.70;1.00
30865;DHT22;17574;49.418;11.038;2022-10-16T12:15:02;28.80;1.00
30865;DHT22;17574;49.418;11.038;2022-10-16T12:17:47;29.00;1.00
30865;DHT22;17574;49.418;11.038;2022-10-16T12:22:41;30.90;1.00
30865;DHT22;17574;49.418;11.038;2022-10-16T12:25:19;31.20;1.00
30865;DHT22;17574;49.418;11.038;2022-10-16T12:27:52;32.60;1.00
30865;DHT22;17574;49.418;11.038;2022-10-16T12:30:21;33.60;1.00
30865;DHT22;17574;49.418;11.038;2022-10-16T12:32:55;34.30;1.00
30865;DHT22;17574;49.418;11.038;2022-10-16T12:35:25;34.00;1.00
30865;DHT22;17574;49.418;11.038;2022-10-16T12:37:52;32.90;1.00
30865;DHT22;17574;49.418;11.038;2022-10-16T12:40:27;31.80;1.00
30865;DHT22;17574;49.418;11.038;2022-10-16T12:42:54;31.00;1.00
30865;DHT22;17574;49.418;11.038;2022-10-16T12:45:25;29.90;1.00
30865;DHT22;17574;49.418;11.038;2022-10-16T12:47:52;29.40;1.00
30865;DHT22;17574;49.418;11.038;2022-10-16T12:50:25;28.80;1.00
30865;DHT22;17574;49.418;11.038;2022-10-16T12:52:52;28.50;1.00
30865;DHT22;17574;49.418;11.038;2022-10-16T12:55:19;28.10;1.00
30865;DHT22;17574;49.418;11.038;2022-10-16T13:00:33;27.70;1.00
30865;DHT22;17574;49.418;11.038;2022-10-16T13:06:35;27.90;1.00
30865;DHT22;17574;49.418;11.038;2022-10-16T13:08:54;28.10;1.00
30865;DHT22;17574;49.418;11.038;2022-10-16T13:11:48;27.90;1.00
30865;DHT22;17574;49.418;11.038;2022-10-16T13:14:33;28.00;1.00
30865;DHT22;17574;49.418;11.038;2022-10-16T13:22:18;28.50;1.00
30865;DHT22;17574;49.418;11.038;2022-10-16T13:25:13;28.60;1.00
30865;DHT22;17574;49.418;11.038;2022-10-16T13:28:00;28.50;1.00
30865;DHT22;17574;49.418;11.038;2022-10-16T13:30:30;28.20;1.00
30865;DHT22;17574;49.418;11.038;2022-10-16T13:33:02;27.80;1.00
30865;DHT22;17574;49.418;11.038;2022-10-16T13:35:30;27.50;1.00
30865;DHT22;17574;49.418;11.038;2022-10-16T13:38:04;27.40;1.00
30865;DHT22;17574;49.418;11.038;2022-10-16T13:40:31;27.40;1.00
30865;DHT22;17574;49.418;11.038;2022-10-16T13:42:59;27.30;1.00
30865;DHT22;17574;49.418;11.038;2022-10-16T13:45:26;27.50;1.00
30865;DHT22;17574;49.418;11.038;2022-10-16T13:48:05;27.70;1.00
30865;DHT22;17574;49.418;11.038;2022-10-16T13:50:32;28.00;1.00
30865;DHT22;17574;49.418;11.038;2022-10-16T13:53:05;28.20;1.00
30865;DHT22;17574;49.418;11.038;2022-10-16T13:55:32;28.30;1.00
30865;DHT22;17574;49.418;11.038;2022-10-16T13:58:06;28.30;1.00
30865;DHT22;17574;49.418;11.038;2022-10-16T14:00:33;28.40;1.00
30865;DHT22;17574;49.418;11.038;2022-10-16T14:03:01;28.30;1.00
30865;DHT22;17574;49.418;11.038;2022-10-16T14:05:28;28.40;1.00
30865;DHT22;17574;49.418;11.038;2022-10-16T14:07:55;28.50;1.00
30865;DHT22;17574;49.418;11.038;2022-10-16T14:10:30;28.60;1.00
30865;DHT22;17574;49.418;11.038;2022-10-16T14:13:04;28.60;1.00
30865;DHT22;17574;49.418;11.038;2022-10-16T14:15:31;28.50;1.00
30865;DHT22;17574;49.418;11.038;2022-10-16T14:17:59;28.40;1.00
30865;DHT22;17574;49.418;11.038;2022-10-16T14:20:26;28.30;1.00
30865;DHT22;17574;49.418;11.038;2022-10-16T14:23:04;28.00;1.00
30865;DHT22;17574;49.418;11.038;2022-10-16T14:25:31;27.90;1.00
30865;DHT22;17574;49.418;11.038;2022-10-16T14:28:13;27.90;1.00
30865;DHT22;17574;49.418;11.038;2022-10-16T14:30:59;27.80;1.00
30865;DHT22;17574;49.418;11.038;2022-10-16T14:36:00;27.40;1.00
30865;DHT22;17574;49.418;11.038;2022-10-16T14:38:28;27.20;1.00
30865;DHT22;17574;49.418;11.038;2022-10-16T14:40:56;26.90;1.00
30865;DHT22;17574;49.418;11.038;2022-10-16T14:43:29;26.70;1.00
30865;DHT22;17574;49.418;11.038;2022-10-16T14:45:57;26.50;1.00
30865;DHT22;17574;49.418;11.038;2022-10-16T14:48:24;26.50;1.00
30865;DHT22;17574;49.418;11.038;2022-10-16T14:50:51;26.30;1.00
30865;DHT22;17574;49.418;11.038;2022-10-16T14:53:17;26.10;1.00
30865;DHT22;17574;49.418;11.038;2022-10-16T14:55:44;26.10;1.00
30865;DHT22;17574;49.418;11.038;2022-10-16T15:00:41;26.00;1.00
30865;DHT22;17574;49.418;11.038;2022-10-16T15:03:08;26.10;1.00
30865;DHT22;17574;49.418;11.038;2022-10-16T15:05:34;26.00;1.00
30865;DHT22;17574;49.418;11.038;2022-10-16T15:08:01;25.80;1.00
30865;DHT22;17574;49.418;11.038;2022-10-16T15:10:27;25.70;1.00
30865;DHT22;17574;49.418;11.038;2022-10-16T15:12:55;25.50;1.00
30865;DHT22;17574;49.418;11.038;2022-10-16T15:17:55;25.30;1.00
30865;DHT22;17574;49.418;11.038;2022-10-16T15:20:27;25.10;1.00
30865;DHT22;17574;49.418;11.038;2022-10-16T15:22:54;25.00;1.00
30865;DHT22;17574;49.418;11.038;2022-10-16T15:25:41;24.90;1.00
30865;DHT22;17574;49.418;11.038;2022-10-16T15:28:09;24.70;1.00
30865;DHT22;17574;49.418;11.038;2022-10-16T15:30:36;24.40;1.00
30865;DHT22;17574;49.418;11.038;2022-10-16T15:33:03;24.30;1.00
30865;DHT22;17574;49.418;11.038;2022-10-16T15:35:30;24.20;1.00
30865;DHT22;17574;49.418;11.038;2022-10-16T15:37:57;24.00;2.10
30865;DHT22;17574;49.418;11.038;2022-10-16T15:40:23;23.70;5.50
30865;DHT22;17574;49.418;11.038;2022-10-16T15:42:50;23.40;7.90
30865;DHT22;17574;49.418;11.038;2022-10-16T15:45:17;23.20;10.20
30865;DHT22;17574;49.418;11.038;2022-10-16T15:47:45;23.00;11.40
30865;DHT22;17574;49.418;11.038;2022-10-16T15:50:13;23.00;11.90
30865;DHT22;17574;49.418;11.038;2022-10-16T15:52:40;22.80;11.30
30865;DHT22;17574;49.418;11.038;2022-10-16T15:55:10;22.60;13.40
30865;DHT22;17574;49.418;11.038;2022-10-16T15:57:37;22.50;15.20
30865;DHT22;17574;49.418;11.038;2022-10-16T16:00:06;22.40;19.30
30865;DHT22;17574;49.418;11.038;2022-10-16T16:02:36;22.20;20.30
30865;DHT22;17574;49.418;11.038;2022-10-16T16:05:03;22.00;21.80
30865;DHT22;17574;49.418;11.038;2022-10-16T16:07:33;21.90;24.00
30865;DHT22;17574;49.418;11.038;2022-10-16T16:10:00;21.60;26.60
30865;DHT22;17574;49.418;11.038;2022-10-16T16:12:27;21.50;28.00
30865;DHT22;17574;49.418;11.038;2022-10-16T16:14:55;21.30;30.10
30865;DHT22;17574;49.418;11.038;2022-10-16T16:17:21;21.30;33.00
30865;DHT22;17574;49.418;11.038;2022-10-16T16:19:48;21.10;31.30
30865;DHT22;17574;49.418;11.038;2022-10-16T16:22:15;21.10;32.00
30865;DHT22;17574;49.418;11.038;2022-10-16T16:24:42;21.00;34.60
30865;DHT22;17574;49.418;11.038;2022-10-16T16:27:08;21.50;41.40
30865;DHT22;17574;49.418;11.038;2022-10-16T16:29:35;21.70;36.20
30865;DHT22;17574;49.418;11.038;2022-10-16T16:32:02;21.50;33.20
30865;DHT22;17574;49.418;11.038;2022-10-16T16:34:29;21.40;30.20
30865;DHT22;17574;49.418;11.038;2022-10-16T16:36:56;21.10;33.80
30865;DHT22;17574;49.418;11.038;2022-10-16T16:39:23;20.90;36.10
30865;DHT22;17574;49.418;11.038;2022-10-16T16:41:49;20.80;38.30
30865;DHT22;17574;49.418;11.038;2022-10-16T16:44:16;20.70;40.30
30865;DHT22;17574;49.418;11.038;2022-10-16T16:46:43;20.60;42.00
30865;DHT22;17574;49.418;11.038;2022-10-16T16:49:11;20.50;43.60
30865;DHT22;17574;49.418;11.038;2022-10-16T16:51:38;20.40;43.60
30865;DHT22;17574;49.418;11.038;2022-10-16T16:54:06;20.30;46.90
30865;DHT22;17574;49.418;11.038;2022-10-16T16:56:34;20.20;47.40
30865;DHT22;17574;49.418;11.038;2022-10-16T16:59:01;20.10;48.80
30865;DHT22;17574;49.418;11.038;2022-10-16T17:01:28;20.10;44.10